createdAt,value
2018-06-14T00:01:27.030Z,5.90
2018-06-14T00:03:55.074Z,5.53
2018-06-14T00:06:23.353Z,6.00
2018-06-14T00:08:51.545Z,5.65
2018-06-14T00:11:19.834Z,5.80
2018-06-14T00:13:48.083Z,6.30
2018-06-14T00:16:16.302Z,6.62
2018-06-14T00:18:44.537Z,5.60
2018-06-14T00:21:12.758Z,6.40
2018-06-14T00:23:41.014Z,6.45
2018-06-14T00:26:09.275Z,6.30
2018-06-14T00:28:37.468Z,6.47
2018-06-14T00:31:05.735Z,6.10
2018-06-14T00:33:33.963Z,5.90
2018-06-14T00:36:02.236Z,5.70
2018-06-14T00:38:30.445Z,6.20
2018-06-14T00:40:58.673Z,5.87
2018-06-14T00:43:26.978Z,6.28
2018-06-14T00:45:55.167Z,5.50
2018-06-14T00:48:23.402Z,5.60
2018-06-14T00:50:51.642Z,5.30
2018-06-14T00:53:19.849Z,6.40
2018-06-14T00:55:48.101Z,5.60
2018-06-14T00:58:16.297Z,6.10
2018-06-14T01:00:44.546Z,5.50
2018-06-14T01:03:12.913Z,5.50
2018-06-14T01:05:41.157Z,5.40
2018-06-14T01:08:09.436Z,5.20
2018-06-14T01:10:37.645Z,5.73
2018-06-14T01:13:05.877Z,5.20
2018-06-14T01:15:34.085Z,4.80
2018-06-14T01:18:02.314Z,5.15
2018-06-14T01:20:30.653Z,5.00
2018-06-14T01:22:58.848Z,5.00
2018-06-14T01:25:27.093Z,4.30
2018-06-14T01:27:55.298Z,4.60
2018-06-14T01:30:23.530Z,4.45
2018-06-14T01:32:51.761Z,6.03
2018-06-14T01:35:19.954Z,5.17
2018-06-14T01:37:59.366Z,5.50
2018-06-14T01:40:27.566Z,5.45
2018-06-14T01:42:55.884Z,6.17
2018-06-14T01:45:24.153Z,6.10
2018-06-14T01:47:52.374Z,6.00
2018-06-14T01:50:20.616Z,4.90
2018-06-14T01:52:48.818Z,5.00
2018-06-14T01:55:17.053Z,5.90
2018-06-14T01:57:45.277Z,5.15
2018-06-14T02:00:13.481Z,4.93
2018-06-14T02:02:41.705Z,5.40
2018-06-14T02:05:09.949Z,5.30
2018-06-14T02:07:38.191Z,6.00
2018-06-14T02:10:06.479Z,5.10
2018-06-14T02:12:34.693Z,5.87
2018-06-14T02:15:02.993Z,5.70
2018-06-14T02:17:31.196Z,5.90
2018-06-14T02:19:59.450Z,10.60
2018-06-14T02:22:27.693Z,8.35
2018-06-14T02:24:55.905Z,5.67
2018-06-14T02:27:24.193Z,5.60
2018-06-14T02:29:52.449Z,5.17
2018-06-14T02:32:21.396Z,5.30
2018-06-14T02:34:50.317Z,5.40
2018-06-14T02:37:18.638Z,4.87
2018-06-14T02:39:46.886Z,4.60
2018-06-14T02:42:15.161Z,5.10
2018-06-14T02:44:43.253Z,5.22
2018-06-14T02:47:11.549Z,6.20
2018-06-14T02:49:39.875Z,6.42
2018-06-14T02:52:08.123Z,5.50
2018-06-14T02:54:36.357Z,6.12
2018-06-14T02:57:04.592Z,5.22
2018-06-14T02:59:32.814Z,4.97
2018-06-14T03:02:01.069Z,5.83
2018-06-14T03:04:29.024Z,5.28
2018-06-14T03:06:57.288Z,4.65
2018-06-14T03:09:25.502Z,5.55
2018-06-14T03:11:53.795Z,5.50
2018-06-14T03:14:22.147Z,5.20
2018-06-14T03:16:50.471Z,4.70
2018-06-14T03:19:18.714Z,6.60
2018-06-14T03:21:47.030Z,5.80
2018-06-14T03:24:15.257Z,6.17
2018-06-14T03:26:43.830Z,5.17
2018-06-14T03:29:12.042Z,5.00
2018-06-14T03:31:40.345Z,5.80
2018-06-14T03:34:08.562Z,5.95
2018-06-14T03:36:36.970Z,6.05
2018-06-14T03:39:07.458Z,6.05
2018-06-14T03:41:35.758Z,6.12
2018-06-14T03:44:04.049Z,5.53
2018-06-14T03:46:32.271Z,5.60
2018-06-14T03:49:00.542Z,5.80
2018-06-14T03:51:28.802Z,5.78
2018-06-14T03:53:57.066Z,5.90
2018-06-14T03:56:25.290Z,5.50
2018-06-14T03:58:53.495Z,5.20
2018-06-14T04:01:21.829Z,4.87
2018-06-14T04:03:50.033Z,4.78
2018-06-14T04:06:18.269Z,5.40
2018-06-14T04:08:46.489Z,5.00
2018-06-14T04:11:14.690Z,5.50
2018-06-14T04:13:42.931Z,6.10
2018-06-14T04:16:11.143Z,4.50
2018-06-14T04:18:39.513Z,5.80
2018-06-14T04:21:07.694Z,5.92
2018-06-14T04:23:35.905Z,4.80
2018-06-14T04:26:04.171Z,5.20
2018-06-14T04:28:32.393Z,5.05
2018-06-14T04:31:00.705Z,5.10
2018-06-14T04:33:28.933Z,5.00
2018-06-14T04:35:57.127Z,5.40
2018-06-14T04:38:25.389Z,5.30
2018-06-14T04:40:53.585Z,5.28
2018-06-14T04:43:21.833Z,5.40
2018-06-14T04:45:50.154Z,4.50
2018-06-14T04:48:18.393Z,4.87
2018-06-14T04:50:46.667Z,5.47
2018-06-14T04:53:14.849Z,4.30
2018-06-14T04:55:43.105Z,5.30
2018-06-14T04:58:11.354Z,5.25
2018-06-14T05:00:39.569Z,5.30
2018-06-14T05:03:07.836Z,5.30
2018-06-14T05:05:36.195Z,5.90
2018-06-14T05:08:04.586Z,6.03
2018-06-14T05:10:32.844Z,6.03
2018-06-14T05:13:01.042Z,5.60
2018-06-14T05:15:29.350Z,5.20
2018-06-14T05:17:57.595Z,5.60
2018-06-14T05:20:25.849Z,5.62
2018-06-14T05:22:54.673Z,5.33
2018-06-14T05:25:22.924Z,5.20
2018-06-14T05:27:51.187Z,4.97
2018-06-14T05:30:19.463Z,4.97
2018-06-14T05:32:47.726Z,5.22
2018-06-14T05:35:16.608Z,4.15
2018-06-14T05:37:44.808Z,5.25
2018-06-14T05:40:13.063Z,4.37
2018-06-14T05:42:41.336Z,4.30
2018-06-14T05:45:09.605Z,4.00
2018-06-14T05:47:37.675Z,3.70
2018-06-14T05:50:05.999Z,3.60
2018-06-14T05:52:34.254Z,3.90
2018-06-14T05:55:02.514Z,4.20
2018-06-14T05:57:30.752Z,4.22
2018-06-14T05:59:58.945Z,4.50
2018-06-14T06:02:27.246Z,4.70
2018-06-14T06:04:55.515Z,4.20
2018-06-14T06:07:24.161Z,4.53
2018-06-14T06:09:52.482Z,4.17
2018-06-14T06:12:20.671Z,3.85
2018-06-14T06:14:49.126Z,4.83
2018-06-14T06:17:17.373Z,4.50
2018-06-14T06:19:45.630Z,4.90
2018-06-14T06:22:13.897Z,4.70
2018-06-14T06:24:42.114Z,3.77
2018-06-14T06:27:10.370Z,4.20
2018-06-14T06:29:38.606Z,4.10
2018-06-14T06:32:06.818Z,4.25
2018-06-14T06:34:35.097Z,4.20
2018-06-14T06:37:03.339Z,4.00
2018-06-14T06:39:31.601Z,3.75
2018-06-14T06:41:59.837Z,4.12
2018-06-14T06:44:28.061Z,3.70
2018-06-14T06:46:56.306Z,4.10
2018-06-14T06:49:24.531Z,4.28
2018-06-14T06:51:52.873Z,4.33
2018-06-14T06:54:21.477Z,4.22
2018-06-14T06:56:49.749Z,4.10
2018-06-14T06:59:18.009Z,4.10
2018-06-14T07:01:46.221Z,4.70
2018-06-14T07:04:14.245Z,4.87
2018-06-14T07:06:42.514Z,4.03
2018-06-14T07:09:11.815Z,4.00
2018-06-14T07:11:40.277Z,3.83
2018-06-14T07:14:08.537Z,3.75
2018-06-14T07:16:37.763Z,4.30
2018-06-14T07:19:06.067Z,4.17
2018-06-14T07:21:34.915Z,2.92
2018-06-14T07:24:03.234Z,3.45
2018-06-14T07:26:31.513Z,3.35
2018-06-14T07:28:59.817Z,3.60
2018-06-14T07:31:28.097Z,3.40
2018-06-14T07:33:56.382Z,3.80
2018-06-14T07:36:24.686Z,3.70
2018-06-14T07:38:52.928Z,3.73
2018-06-14T07:41:21.207Z,3.70
2018-06-14T07:43:49.461Z,3.30
2018-06-14T07:46:17.697Z,3.42
2018-06-14T07:48:45.964Z,3.50
2018-06-14T07:51:14.217Z,3.40
2018-06-14T07:53:42.440Z,3.30
2018-06-14T07:56:10.718Z,3.10
2018-06-14T07:58:38.944Z,3.35
2018-06-14T08:01:07.222Z,3.17
2018-06-14T08:03:35.477Z,2.80
2018-06-14T08:06:03.759Z,2.85
2018-06-14T08:08:32.006Z,3.10
2018-06-14T08:11:00.212Z,2.80
2018-06-14T08:13:28.517Z,3.30
2018-06-14T08:15:56.730Z,2.80
2018-06-14T08:18:25.429Z,2.90
2018-06-14T08:20:53.702Z,2.40
2018-06-14T08:23:21.907Z,2.90
2018-06-14T08:25:50.187Z,3.17
2018-06-14T08:28:18.408Z,3.02
2018-06-14T08:30:46.647Z,2.70
2018-06-14T08:33:14.868Z,3.10
2018-06-14T08:35:43.105Z,2.80
2018-06-14T08:38:11.386Z,2.65
2018-06-14T08:40:39.627Z,2.72
2018-06-14T08:43:07.886Z,3.27
2018-06-14T08:45:35.902Z,2.80
2018-06-14T08:48:04.160Z,3.30
2018-06-14T08:50:32.408Z,2.93
2018-06-14T08:53:00.598Z,3.22
2018-06-14T08:55:29.005Z,2.47
2018-06-14T08:57:57.256Z,2.90
2018-06-14T09:00:25.513Z,2.20
2018-06-14T09:02:53.767Z,2.33
2018-06-14T09:05:22.001Z,2.30
2018-06-14T09:07:50.290Z,2.05
2018-06-14T09:10:18.544Z,1.80
2018-06-14T09:12:46.770Z,2.10
2018-06-14T09:15:15.086Z,2.10
2018-06-14T09:17:43.305Z,1.90
2018-06-14T09:20:11.681Z,2.12
2018-06-14T09:22:39.973Z,2.50
2018-06-14T09:25:08.231Z,2.40
2018-06-14T09:27:36.486Z,2.63
2018-06-14T09:30:05.148Z,2.50
2018-06-14T09:32:33.430Z,2.08
2018-06-14T09:35:01.678Z,2.08
2018-06-14T09:37:29.933Z,2.30
2018-06-14T09:39:58.174Z,1.92
2018-06-14T09:42:26.393Z,1.90
2018-06-14T09:44:54.649Z,1.90
2018-06-14T09:47:23.014Z,1.80
2018-06-14T09:49:51.593Z,1.87
2018-06-14T09:52:19.810Z,1.85
2018-06-14T09:54:48.038Z,2.00
2018-06-14T09:57:16.339Z,2.20
2018-06-14T09:59:44.626Z,2.00
2018-06-14T10:02:12.859Z,1.95
2018-06-14T10:04:41.124Z,2.20
2018-06-14T10:07:09.440Z,1.70
2018-06-14T10:09:37.755Z,2.00
2018-06-14T10:12:06.111Z,1.90
2018-06-14T10:14:34.362Z,1.80
2018-06-14T10:17:03.138Z,1.80
2018-06-14T10:19:31.502Z,2.02
2018-06-14T10:21:59.750Z,2.10
2018-06-14T10:24:28.012Z,2.10
2018-06-14T10:26:56.256Z,2.00
2018-06-14T10:29:24.574Z,2.03
2018-06-14T10:31:52.872Z,1.87
2018-06-14T10:34:21.102Z,2.10
2018-06-14T10:36:49.390Z,2.00
2018-06-14T10:39:17.620Z,2.40
2018-06-14T10:41:45.880Z,2.10
2018-06-14T10:44:14.109Z,2.20
2018-06-14T10:46:42.345Z,2.50
2018-06-14T10:49:10.573Z,2.55
2018-06-14T10:51:38.785Z,2.30
2018-06-14T10:54:07.048Z,2.10
2018-06-14T10:56:35.326Z,2.40
2018-06-14T10:59:03.623Z,2.50
2018-06-14T11:01:31.861Z,2.00
2018-06-14T11:04:00.078Z,2.30
2018-06-14T11:06:28.338Z,2.30
2018-06-14T11:08:56.529Z,1.90
2018-06-14T11:11:24.775Z,2.12
2018-06-14T11:13:53.012Z,2.62
2018-06-14T11:16:21.238Z,3.00
2018-06-14T11:18:49.466Z,2.83
2018-06-14T11:21:17.690Z,2.60
2018-06-14T11:23:45.960Z,2.50
2018-06-14T11:26:14.197Z,2.30
2018-06-14T11:28:42.394Z,3.10
2018-06-14T11:31:10.626Z,2.87
2018-06-14T11:33:38.857Z,2.70
2018-06-14T11:36:07.141Z,3.00
2018-06-14T11:38:35.412Z,2.37
2018-06-14T11:41:03.742Z,2.87
2018-06-14T11:43:31.986Z,2.60
2018-06-14T11:46:00.207Z,2.00
2018-06-14T11:48:28.465Z,2.77
2018-06-14T11:50:56.809Z,2.40
2018-06-14T11:53:25.043Z,2.70
2018-06-14T11:55:53.306Z,2.40
2018-06-14T11:58:21.586Z,2.90
2018-06-14T12:00:49.831Z,2.87
2018-06-14T12:03:18.113Z,2.50
2018-06-14T12:05:46.310Z,2.80
2018-06-14T12:08:14.576Z,2.20
2018-06-14T12:10:42.802Z,2.70
2018-06-14T12:13:11.090Z,2.40
2018-06-14T12:15:39.422Z,2.37
2018-06-14T12:18:07.639Z,2.90
2018-06-14T12:20:36.236Z,2.30
2018-06-14T12:23:04.470Z,2.20
2018-06-14T12:25:32.692Z,2.70
2018-06-14T12:28:00.950Z,2.80
2018-06-14T12:30:29.181Z,2.43
2018-06-14T12:32:57.421Z,2.65
2018-06-14T12:35:25.645Z,2.70
2018-06-14T12:37:53.878Z,2.70
2018-06-14T12:40:22.143Z,2.00
2018-06-14T12:42:50.353Z,2.30
2018-06-14T12:48:05.759Z,2.60
2018-06-14T12:50:34.027Z,2.60
2018-06-14T12:53:02.312Z,2.60
2018-06-14T12:55:30.551Z,2.50
2018-06-14T12:57:58.922Z,2.20
2018-06-14T13:00:27.205Z,2.00
2018-06-14T13:02:55.494Z,2.10
2018-06-14T13:05:23.764Z,2.30
2018-06-14T13:07:52.039Z,2.75
2018-06-14T13:10:20.394Z,2.30
2018-06-14T13:12:48.734Z,2.40
2018-06-14T13:15:16.975Z,2.20
2018-06-14T13:17:45.251Z,1.75
2018-06-14T13:20:13.488Z,1.50
2018-06-14T13:22:41.773Z,2.20
2018-06-14T13:25:10.052Z,2.00
2018-06-14T13:27:38.348Z,2.30
2018-06-14T13:30:06.660Z,2.10
2018-06-14T13:32:34.898Z,2.07
2018-06-14T13:35:03.306Z,2.10
2018-06-14T13:37:31.521Z,2.30
2018-06-14T13:39:59.777Z,1.85
2018-06-14T13:42:28.073Z,2.00
2018-06-14T13:44:56.282Z,2.37
2018-06-14T13:47:24.517Z,1.80
2018-06-14T13:49:52.727Z,2.47
2018-06-14T13:52:21.012Z,1.98
2018-06-14T13:54:49.298Z,2.30
2018-06-14T13:57:17.576Z,2.12
2018-06-14T13:59:45.885Z,1.80
2018-06-14T14:02:14.127Z,2.40
2018-06-14T14:04:42.425Z,2.20
2018-06-14T14:07:10.682Z,1.90
2018-06-14T14:09:38.945Z,2.17
2018-06-14T14:12:07.206Z,2.30
2018-06-14T14:14:35.426Z,1.92
2018-06-14T14:17:03.705Z,1.90
2018-06-14T14:19:31.937Z,2.30
2018-06-14T14:22:00.147Z,2.30
2018-06-14T14:24:28.427Z,1.70
2018-06-14T14:26:56.674Z,2.30
2018-06-14T14:29:24.937Z,2.52
2018-06-14T14:31:53.187Z,2.80
2018-06-14T14:34:21.471Z,2.52
2018-06-14T14:36:49.754Z,2.70
2018-06-14T14:39:18.071Z,2.65
2018-06-14T14:41:46.350Z,2.20
2018-06-14T14:44:14.699Z,2.40
2018-06-14T14:46:42.935Z,2.22
2018-06-14T14:49:11.180Z,2.50
2018-06-14T14:51:39.394Z,2.42
2018-06-14T14:54:07.741Z,2.70
2018-06-14T14:56:35.990Z,3.33
2018-06-14T14:59:04.345Z,3.00
2018-06-14T15:01:32.593Z,2.40
2018-06-14T15:04:00.814Z,2.50
2018-06-14T15:06:29.057Z,2.70
2018-06-14T15:08:57.328Z,2.42
2018-06-14T15:11:25.525Z,2.25
2018-06-14T15:13:54.036Z,2.30
2018-06-14T15:16:23.423Z,2.00
2018-06-14T15:18:51.909Z,2.50
2018-06-14T15:21:20.223Z,3.00
2018-06-14T15:23:48.498Z,3.12
2018-06-14T15:26:16.813Z,3.07
2018-06-14T15:28:45.042Z,3.15
2018-06-14T15:31:13.281Z,3.62
2018-06-14T15:33:41.552Z,2.77
2018-06-14T15:36:09.798Z,2.98
2018-06-14T15:38:38.134Z,3.33
2018-06-14T15:41:06.366Z,2.70
2018-06-14T15:43:34.609Z,3.33
2018-06-14T15:46:02.980Z,2.60
2018-06-14T15:48:31.249Z,1.90
2018-06-14T15:50:59.641Z,2.30
2018-06-14T15:53:28.051Z,2.75
2018-06-14T15:56:13.646Z,2.40
2018-06-14T15:58:42.467Z,2.50
2018-06-14T16:01:10.898Z,2.20
2018-06-14T16:03:39.165Z,3.00
2018-06-14T16:06:07.413Z,2.90
2018-06-14T16:08:35.736Z,3.35
2018-06-14T16:11:04.038Z,3.20
2018-06-14T16:13:32.321Z,3.50
2018-06-14T16:16:00.633Z,3.80
2018-06-14T16:18:28.865Z,3.67
2018-06-14T16:20:57.271Z,3.70
2018-06-14T16:23:25.526Z,3.90
2018-06-14T16:25:53.990Z,3.75
2018-06-14T16:28:22.271Z,4.10
2018-06-14T16:30:50.532Z,3.50
2018-06-14T16:33:18.851Z,3.62
2018-06-14T16:35:47.156Z,4.08
2018-06-14T16:38:15.393Z,3.62
2018-06-14T16:40:43.670Z,3.47
2018-06-14T16:43:12.336Z,3.20
2018-06-14T16:45:40.700Z,3.67
2018-06-14T16:48:09.172Z,3.30
2018-06-14T16:50:37.514Z,3.50
2018-06-14T16:53:05.898Z,4.08
2018-06-14T16:55:34.482Z,3.60
2018-06-14T16:58:02.976Z,3.30
2018-06-14T17:00:31.478Z,3.80
2018-06-14T17:02:59.872Z,3.45
2018-06-14T17:05:28.142Z,3.70
2018-06-14T17:07:56.468Z,3.40
2018-06-14T17:10:24.764Z,3.17
2018-06-14T17:12:53.073Z,3.45
2018-06-14T17:15:21.325Z,3.43
2018-06-14T17:17:49.645Z,3.47
2018-06-14T17:20:17.888Z,3.50
2018-06-14T17:22:46.153Z,3.50
2018-06-14T17:25:14.478Z,3.05
2018-06-14T17:27:42.790Z,3.47
2018-06-14T17:30:11.101Z,3.20
2018-06-14T17:32:39.360Z,3.60
2018-06-14T17:35:07.674Z,3.67
2018-06-14T17:37:35.973Z,2.90
2018-06-14T17:40:04.349Z,3.70
2018-06-14T17:42:32.638Z,3.58
2018-06-14T17:45:00.929Z,3.40
2018-06-14T17:47:29.226Z,3.80
2018-06-14T17:49:57.242Z,3.30
2018-06-14T17:52:25.511Z,3.40
2018-06-14T17:54:54.746Z,3.65
2018-06-14T17:57:23.600Z,3.70
2018-06-14T17:59:52.349Z,3.45
2018-06-14T18:02:21.190Z,3.42
2018-06-14T18:04:51.259Z,3.45
2018-06-14T18:07:20.497Z,3.80
2018-06-14T18:09:49.435Z,3.73
2018-06-14T18:12:18.429Z,3.55
2018-06-14T18:14:47.155Z,4.03
2018-06-14T18:17:15.926Z,4.00
2018-06-14T18:19:44.670Z,3.30
2018-06-14T18:22:13.435Z,3.95
2018-06-14T18:24:42.095Z,3.90
2018-06-14T18:27:10.426Z,3.87
2018-06-14T18:29:38.641Z,4.10
2018-06-14T18:32:06.973Z,3.50
2018-06-14T18:34:35.368Z,3.72
2018-06-14T18:37:04.337Z,3.50
2018-06-14T18:39:33.576Z,3.70
2018-06-14T18:42:02.122Z,3.30
2018-06-14T18:44:30.737Z,3.52
2018-06-14T18:46:59.054Z,3.40
2018-06-14T18:49:27.340Z,3.70
2018-06-14T18:51:55.622Z,3.40
2018-06-14T18:54:23.912Z,3.22
2018-06-14T18:56:52.210Z,3.40
2018-06-14T18:59:20.530Z,3.30
2018-06-14T19:01:48.773Z,2.98
2018-06-14T19:04:17.836Z,3.08
2018-06-14T19:06:46.070Z,3.12
2018-06-14T19:09:14.430Z,3.40
2018-06-14T19:11:42.679Z,3.60
2018-06-14T19:14:10.923Z,3.40
2018-06-14T19:16:39.193Z,3.60
2018-06-14T19:19:08.409Z,3.50
2018-06-14T19:21:36.649Z,3.67
2018-06-14T19:24:04.956Z,3.80
2018-06-14T19:26:33.225Z,3.90
2018-06-14T19:29:01.606Z,3.80
2018-06-14T19:31:29.802Z,3.87
2018-06-14T19:33:58.063Z,4.50
2018-06-14T19:36:26.606Z,4.00
2018-06-14T19:38:54.928Z,4.10
2018-06-14T19:41:23.145Z,3.80
2018-06-14T19:43:51.373Z,4.33
2018-06-14T19:46:19.614Z,4.00
2018-06-14T19:48:48.061Z,4.40
2018-06-14T19:51:16.370Z,4.25
2018-06-14T19:53:44.977Z,3.98
2018-06-14T19:56:13.218Z,3.80
2018-06-14T19:58:43.113Z,3.98
2018-06-14T20:01:11.592Z,4.33
2018-06-14T20:03:40.096Z,4.50
2018-06-14T20:06:08.452Z,4.40
2018-06-14T20:08:38.175Z,4.53
2018-06-14T20:11:07.429Z,4.20
2018-06-14T20:13:37.309Z,4.10
2018-06-14T20:16:05.612Z,3.60
2018-06-14T20:18:33.846Z,3.60
2018-06-14T20:21:02.197Z,4.40
2018-06-14T20:23:31.074Z,3.75
2018-06-14T20:25:59.952Z,4.60
2018-06-14T20:28:28.223Z,4.90
2018-06-14T20:30:56.213Z,5.03
2018-06-14T20:33:24.655Z,5.67
2018-06-14T20:35:53.858Z,5.40
2018-06-14T20:38:22.082Z,5.17
2018-06-14T20:40:51.241Z,5.53
2018-06-14T20:43:19.537Z,4.97
2018-06-14T20:45:47.838Z,5.20
2018-06-14T20:48:16.074Z,4.80
2018-06-14T20:50:44.337Z,5.15
2018-06-14T20:53:12.545Z,5.10
2018-06-14T20:55:41.314Z,4.60
2018-06-14T20:58:09.557Z,4.80
2018-06-14T21:00:38.481Z,5.45
2018-06-14T21:03:06.741Z,5.12
2018-06-14T21:05:34.973Z,5.70
2018-06-14T21:08:03.201Z,5.40
2018-06-14T21:10:31.901Z,6.53
2018-06-14T21:13:00.170Z,7.17
2018-06-14T21:15:28.453Z,7.30
2018-06-14T21:17:56.756Z,8.10
2018-06-14T21:20:24.982Z,7.37
2018-06-14T21:22:53.210Z,7.60
2018-06-14T21:25:21.517Z,6.50
2018-06-14T21:27:49.748Z,6.17
2018-06-14T21:30:18.027Z,5.20
2018-06-14T21:32:46.258Z,6.55
2018-06-14T21:35:14.885Z,5.45
2018-06-14T21:37:43.159Z,5.60
2018-06-14T21:40:11.451Z,5.20
2018-06-14T21:42:39.694Z,5.85
2018-06-14T21:45:07.965Z,4.90
2018-06-14T21:47:36.245Z,4.83
2018-06-14T21:50:04.531Z,5.12
2018-06-14T21:52:32.800Z,4.55
2018-06-14T21:55:01.054Z,4.67
2018-06-14T21:57:29.289Z,4.67
2018-06-14T21:59:57.575Z,5.15
2018-06-14T22:02:26.386Z,4.42
2018-06-14T22:04:55.168Z,4.85
2018-06-14T22:07:23.837Z,4.30
2018-06-14T22:09:52.577Z,4.30
2018-06-14T22:12:21.327Z,4.10
2018-06-14T22:14:49.984Z,4.30
2018-06-14T22:17:18.325Z,4.43
2018-06-14T22:19:46.550Z,4.92
2018-06-14T22:22:14.769Z,5.00
2018-06-14T22:24:42.982Z,4.17
2018-06-14T22:27:11.281Z,4.20
2018-06-14T22:29:39.511Z,4.97
2018-06-14T22:32:07.765Z,4.50
2018-06-14T22:34:47.165Z,4.40
2018-06-14T22:37:15.414Z,4.20
2018-06-14T22:39:43.633Z,4.10
2018-06-14T22:42:11.892Z,4.22
2018-06-14T22:44:40.111Z,4.00
2018-06-14T22:47:08.378Z,4.40
2018-06-14T22:49:36.580Z,4.58
2018-06-14T22:52:40.804Z,3.80
2018-06-14T22:55:08.994Z,4.45
2018-06-14T22:57:37.238Z,4.50
2018-06-14T23:00:05.606Z,3.80
2018-06-14T23:02:33.605Z,4.58
2018-06-14T23:05:01.834Z,4.30
2018-06-14T23:07:30.101Z,4.40
2018-06-14T23:10:10.126Z,4.30
2018-06-14T23:12:38.470Z,4.35
2018-06-14T23:15:06.695Z,4.50
2018-06-14T23:17:34.962Z,4.40
2018-06-14T23:20:03.219Z,4.20
2018-06-14T23:22:31.470Z,3.72
2018-06-14T23:24:59.686Z,3.50
2018-06-14T23:27:27.916Z,4.50
2018-06-14T23:29:56.218Z,4.20
2018-06-14T23:32:24.473Z,4.40
2018-06-14T23:34:52.683Z,4.35
2018-06-14T23:37:20.926Z,4.10
2018-06-14T23:39:49.182Z,4.20
2018-06-14T23:42:17.489Z,4.22
2018-06-14T23:44:45.691Z,4.80
2018-06-14T23:47:13.937Z,4.53
2018-06-14T23:49:42.144Z,4.53
2018-06-14T23:52:10.396Z,4.30
2018-06-14T23:54:38.746Z,4.70
2018-06-14T23:57:06.993Z,4.65
2018-06-14T23:59:35.189Z,4.83
